Main page
METAR-TAF:

METAR-TAF

Airports :

RAF Shawbury

Shawbury, England

latitude: 52-48N, longitude: 002-40W, elevation: 76 m

Current weather observation

The report was made 23 minutes ago, at 18:50 UTC
Wind 12 kt from the South
Temperature 13°C
Humidity 72%
Pressure 1005 hPa
Visibility 10 km or more
light rain

METAR: EGOS 251850Z AUTO 19012KT 9999 -RA FEW045/// BKN060/// 13/08 Q1005

Time: 20:13 (19:13 UTC)


TAF: missing

Weather observations and forecasts of more than 4000 airports (METAR and TAF reports).

The available stations are represented by yellow and red dots on the map.

Hover mouse over dot to see the name of the station.

Then click to see weather observations and forecasts.

To change the map : click on the green buttons with a black cross to zoom in, on the green button with a dash to zoom out, or on the green arrows for adjacent maps.


METAR-TAF: